sensor_id;sensor_type;location;lat;lon;timestamp;P1;durP1;ratioP1;P2;durP2;ratioP2
78796;SDS011;68145;52.514;13.460;2023-04-24T00:02:12;5.45;;;4.35;;
78796;SDS011;68145;52.514;13.460;2023-04-24T00:04:38;6.10;;;4.07;;
78796;SDS011;68145;52.514;13.460;2023-04-24T00:07:10;5.45;;;3.78;;
78796;SDS011;68145;52.514;13.460;2023-04-24T00:09:36;6.10;;;4.53;;
78796;SDS011;68145;52.514;13.460;2023-04-24T00:12:02;7.75;;;4.68;;
78796;SDS011;68145;52.514;13.460;2023-04-24T00:14:30;8.02;;;4.38;;
78796;SDS011;68145;52.514;13.460;2023-04-24T00:16:56;6.30;;;4.70;;
78796;SDS011;68145;52.514;13.460;2023-04-24T00:19:22;5.78;;;4.35;;
78796;SDS011;68145;52.514;13.460;2023-04-24T00:21:48;6.25;;;3.95;;
78796;SDS011;68145;52.514;13.460;2023-04-24T00:24:17;5.50;;;4.00;;
78796;SDS011;68145;52.514;13.460;2023-04-24T00:26:43;6.50;;;4.28;;
78796;SDS011;68145;52.514;13.460;2023-04-24T00:29:09;7.03;;;4.90;;
78796;SDS011;68145;52.514;13.460;2023-04-24T00:31:35;5.43;;;4.13;;
78796;SDS011;68145;52.514;13.460;2023-04-24T00:34:02;6.03;;;4.50;;
78796;SDS011;68145;52.514;13.460;2023-04-24T00:36:28;6.47;;;4.53;;
78796;SDS011;68145;52.514;13.460;2023-04-24T00:38:55;7.32;;;4.40;;
78796;SDS011;68145;52.514;13.460;2023-04-24T00:41:21;6.95;;;4.55;;
78796;SDS011;68145;52.514;13.460;2023-04-24T00:43:47;6.35;;;4.63;;
78796;SDS011;68145;52.514;13.460;2023-04-24T00:46:14;7.50;;;4.75;;
78796;SDS011;68145;52.514;13.460;2023-04-24T00:48:40;5.60;;;4.22;;
78796;SDS011;68145;52.514;13.460;2023-04-24T00:51:06;6.13;;;4.30;;
78796;SDS011;68145;52.514;13.460;2023-04-24T00:53:32;6.95;;;4.50;;
78796;SDS011;68145;52.514;13.460;2023-04-24T00:55:58;7.18;;;4.93;;
78796;SDS011;68145;52.514;13.460;2023-04-24T00:58:25;5.95;;;4.40;;
78796;SDS011;68145;52.514;13.460;2023-04-24T01:00:52;5.63;;;4.80;;
78796;SDS011;68145;52.514;13.460;2023-04-24T01:03:19;6.68;;;4.53;;
78796;SDS011;68145;52.514;13.460;2023-04-24T01:05:46;5.63;;;4.30;;
78796;SDS011;68145;52.514;13.460;2023-04-24T01:08:12;6.13;;;4.00;;
78796;SDS011;68145;52.514;13.460;2023-04-24T01:10:38;5.95;;;4.30;;
78796;SDS011;68145;52.514;13.460;2023-04-24T01:13:06;6.43;;;3.95;;
78796;SDS011;68145;52.514;13.460;2023-04-24T01:15:33;5.78;;;4.38;;
78796;SDS011;68145;52.514;13.460;2023-04-24T01:17:59;5.78;;;4.47;;
78796;SDS011;68145;52.514;13.460;2023-04-24T01:20:26;5.50;;;4.03;;
78796;SDS011;68145;52.514;13.460;2023-04-24T01:22:54;6.70;;;4.75;;
78796;SDS011;68145;52.514;13.460;2023-04-24T01:25:21;6.43;;;4.57;;
78796;SDS011;68145;52.514;13.460;2023-04-24T01:27:47;5.57;;;4.57;;
78796;SDS011;68145;52.514;13.460;2023-04-24T01:30:13;6.75;;;4.18;;
78796;SDS011;68145;52.514;13.460;2023-04-24T01:32:40;6.25;;;4.45;;
78796;SDS011;68145;52.514;13.460;2023-04-24T01:35:09;6.85;;;4.60;;
78796;SDS011;68145;52.514;13.460;2023-04-24T01:37:35;5.95;;;4.88;;
78796;SDS011;68145;52.514;13.460;2023-04-24T01:40:05;5.50;;;4.30;;
78796;SDS011;68145;52.514;13.460;2023-04-24T01:42:32;5.20;;;4.43;;
78796;SDS011;68145;52.514;13.460;2023-04-24T01:44:58;5.57;;;4.30;;
78796;SDS011;68145;52.514;13.460;2023-04-24T01:47:25;6.78;;;4.80;;
78796;SDS011;68145;52.514;13.460;2023-04-24T01:49:51;6.10;;;4.57;;
78796;SDS011;68145;52.514;13.460;2023-04-24T01:52:17;5.53;;;4.53;;
78796;SDS011;68145;52.514;13.460;2023-04-24T01:54:44;6.13;;;4.20;;
78796;SDS011;68145;52.514;13.460;2023-04-24T01:57:10;7.50;;;5.07;;
78796;SDS011;68145;52.514;13.460;2023-04-24T01:59:36;8.02;;;4.25;;
78796;SDS011;68145;52.514;13.460;2023-04-24T02:02:03;5.55;;;4.60;;
78796;SDS011;68145;52.514;13.460;2023-04-24T02:04:29;6.30;;;4.80;;
78796;SDS011;68145;52.514;13.460;2023-04-24T02:06:55;7.50;;;5.35;;
78796;SDS011;68145;52.514;13.460;2023-04-24T02:09:21;4.95;;;4.25;;
78796;SDS011;68145;52.514;13.460;2023-04-24T02:11:47;5.97;;;4.53;;
78796;SDS011;68145;52.514;13.460;2023-04-24T02:14:13;10.07;;;5.13;;
78796;SDS011;68145;52.514;13.460;2023-04-24T02:16:39;7.05;;;5.15;;
78796;SDS011;68145;52.514;13.460;2023-04-24T02:19:05;6.43;;;5.18;;
78796;SDS011;68145;52.514;13.460;2023-04-24T02:21:31;6.85;;;4.60;;
78796;SDS011;68145;52.514;13.460;2023-04-24T02:23:57;6.80;;;5.28;;
78796;SDS011;68145;52.514;13.460;2023-04-24T02:26:23;9.07;;;5.53;;
78796;SDS011;68145;52.514;13.460;2023-04-24T02:28:50;7.95;;;4.82;;
78796;SDS011;68145;52.514;13.460;2023-04-24T02:31:16;6.70;;;5.03;;
78796;SDS011;68145;52.514;13.460;2023-04-24T02:33:42;6.30;;;4.80;;
78796;SDS011;68145;52.514;13.460;2023-04-24T02:36:08;6.55;;;4.88;;
78796;SDS011;68145;52.514;13.460;2023-04-24T02:38:34;6.28;;;4.75;;
78796;SDS011;68145;52.514;13.460;2023-04-24T02:41:00;6.78;;;5.25;;
78796;SDS011;68145;52.514;13.460;2023-04-24T02:43:27;7.25;;;5.47;;
78796;SDS011;68145;52.514;13.460;2023-04-24T02:45:53;6.78;;;5.32;;
78796;SDS011;68145;52.514;13.460;2023-04-24T02:48:19;6.63;;;5.20;;
78796;SDS011;68145;52.514;13.460;2023-04-24T02:50:46;6.97;;;5.40;;
78796;SDS011;68145;52.514;13.460;2023-04-24T02:53:12;7.82;;;5.40;;
78796;SDS011;68145;52.514;13.460;2023-04-24T02:55:38;10.20;;;5.30;;
78796;SDS011;68145;52.514;13.460;2023-04-24T02:58:04;6.53;;;5.13;;
78796;SDS011;68145;52.514;13.460;2023-04-24T03:00:31;9.45;;;5.70;;
78796;SDS011;68145;52.514;13.460;2023-04-24T03:02:57;7.47;;;5.25;;
78796;SDS011;68145;52.514;13.460;2023-04-24T03:05:23;7.72;;;5.28;;
78796;SDS011;68145;52.514;13.460;2023-04-24T03:07:49;7.53;;;5.47;;
78796;SDS011;68145;52.514;13.460;2023-04-24T03:10:17;6.40;;;5.55;;
78796;SDS011;68145;52.514;13.460;2023-04-24T03:12:43;6.28;;;5.28;;
78796;SDS011;68145;52.514;13.460;2023-04-24T03:15:09;10.00;;;5.82;;
78796;SDS011;68145;52.514;13.460;2023-04-24T03:17:35;8.50;;;5.50;;
78796;SDS011;68145;52.514;13.460;2023-04-24T03:20:02;7.80;;;5.43;;
78796;SDS011;68145;52.514;13.460;2023-04-24T03:22:30;7.28;;;5.68;;
78796;SDS011;68145;52.514;13.460;2023-04-24T03:24:57;7.32;;;5.40;;
78796;SDS011;68145;52.514;13.460;2023-04-24T03:27:23;9.93;;;7.10;;
78796;SDS011;68145;52.514;13.460;2023-04-24T03:29:49;11.07;;;6.90;;
78796;SDS011;68145;52.514;13.460;2023-04-24T03:32:21;14.32;;;7.43;;
78796;SDS011;68145;52.514;13.460;2023-04-24T03:34:48;11.73;;;7.20;;
78796;SDS011;68145;52.514;13.460;2023-04-24T03:37:15;14.98;;;7.18;;
78796;SDS011;68145;52.514;13.460;2023-04-24T03:39:41;12.52;;;7.10;;
78796;SDS011;68145;52.514;13.460;2023-04-24T03:42:07;10.77;;;6.75;;
78796;SDS011;68145;52.514;13.460;2023-04-24T03:44:33;10.00;;;6.43;;
78796;SDS011;68145;52.514;13.460;2023-04-24T03:47:00;12.88;;;6.72;;
78796;SDS011;68145;52.514;13.460;2023-04-24T03:49:26;11.07;;;6.18;;
78796;SDS011;68145;52.514;13.460;2023-04-24T03:51:52;11.02;;;6.57;;
78796;SDS011;68145;52.514;13.460;2023-04-24T03:54:18;8.50;;;6.15;;
78796;SDS011;68145;52.514;13.460;2023-04-24T03:56:44;9.35;;;5.63;;
78796;SDS011;68145;52.514;13.460;2023-04-24T03:59:11;6.22;;;4.82;;
78796;SDS011;68145;52.514;13.460;2023-04-24T04:01:38;6.95;;;5.07;;
78796;SDS011;68145;52.514;13.460;2023-04-24T04:04:04;8.32;;;5.45;;
78796;SDS011;68145;52.514;13.460;2023-04-24T04:06:30;7.10;;;5.28;;
78796;SDS011;68145;52.514;13.460;2023-04-24T04:08:57;7.43;;;5.70;;
78796;SDS011;68145;52.514;13.460;2023-04-24T04:11:23;8.68;;;5.03;;
78796;SDS011;68145;52.514;13.460;2023-04-24T04:13:49;7.25;;;5.38;;
78796;SDS011;68145;52.514;13.460;2023-04-24T04:16:15;5.97;;;5.18;;
78796;SDS011;68145;52.514;13.460;2023-04-24T04:18:44;7.10;;;5.50;;
78796;SDS011;68145;52.514;13.460;2023-04-24T04:21:10;8.73;;;5.43;;
78796;SDS011;68145;52.514;13.460;2023-04-24T04:23:37;6.32;;;5.28;;
78796;SDS011;68145;52.514;13.460;2023-04-24T04:26:03;7.43;;;6.00;;
78796;SDS011;68145;52.514;13.460;2023-04-24T04:28:30;7.97;;;5.72;;
78796;SDS011;68145;52.514;13.460;2023-04-24T04:30:56;7.88;;;5.55;;
78796;SDS011;68145;52.514;13.460;2023-04-24T04:33:23;7.53;;;4.93;;
78796;SDS011;68145;52.514;13.460;2023-04-24T04:35:49;7.38;;;5.97;;
78796;SDS011;68145;52.514;13.460;2023-04-24T04:38:17;14.70;;;5.63;;
78796;SDS011;68145;52.514;13.460;2023-04-24T04:40:43;8.02;;;5.15;;
78796;SDS011;68145;52.514;13.460;2023-04-24T04:43:09;8.55;;;5.72;;
78796;SDS011;68145;52.514;13.460;2023-04-24T04:45:36;11.40;;;5.63;;
78796;SDS011;68145;52.514;13.460;2023-04-24T04:48:04;6.28;;;5.00;;
78796;SDS011;68145;52.514;13.460;2023-04-24T04:50:32;7.40;;;5.35;;
78796;SDS011;68145;52.514;13.460;2023-04-24T04:52:58;8.23;;;4.57;;
78796;SDS011;68145;52.514;13.460;2023-04-24T04:55:24;6.68;;;4.93;;
78796;SDS011;68145;52.514;13.460;2023-04-24T04:57:51;8.23;;;5.30;;
78796;SDS011;68145;52.514;13.460;2023-04-24T05:00:17;6.45;;;5.10;;
78796;SDS011;68145;52.514;13.460;2023-04-24T05:02:44;12.75;;;5.82;;
78796;SDS011;68145;52.514;13.460;2023-04-24T05:05:10;7.25;;;4.85;;
78796;SDS011;68145;52.514;13.460;2023-04-24T05:07:36;10.43;;;5.18;;
78796;SDS011;68145;52.514;13.460;2023-04-24T05:10:02;6.88;;;5.30;;
78796;SDS011;68145;52.514;13.460;2023-04-24T05:12:29;7.88;;;5.20;;
78796;SDS011;68145;52.514;13.460;2023-04-24T05:14:55;7.60;;;5.05;;
78796;SDS011;68145;52.514;13.460;2023-04-24T05:17:21;7.30;;;4.72;;
78796;SDS011;68145;52.514;13.460;2023-04-24T05:19:47;7.18;;;5.00;;
78796;SDS011;68145;52.514;13.460;2023-04-24T05:22:13;8.93;;;4.70;;
78796;SDS011;68145;52.514;13.460;2023-04-24T05:24:39;6.70;;;4.80;;
78796;SDS011;68145;52.514;13.460;2023-04-24T05:27:05;6.53;;;4.57;;
78796;SDS011;68145;52.514;13.460;2023-04-24T05:29:32;7.55;;;4.70;;
78796;SDS011;68145;52.514;13.460;2023-04-24T05:31:58;6.57;;;4.45;;
78796;SDS011;68145;52.514;13.460;2023-04-24T05:34:24;6.32;;;4.53;;
78796;SDS011;68145;52.514;13.460;2023-04-24T05:36:50;6.28;;;4.60;;
78796;SDS011;68145;52.514;13.460;2023-04-24T05:39:17;6.13;;;4.03;;
78796;SDS011;68145;52.514;13.460;2023-04-24T05:41:46;5.13;;;3.70;;
78796;SDS011;68145;52.514;13.460;2023-04-24T05:44:12;5.70;;;3.63;;
78796;SDS011;68145;52.514;13.460;2023-04-24T05:46:38;5.10;;;3.70;;
78796;SDS011;68145;52.514;13.460;2023-04-24T05:49:05;6.40;;;3.22;;
78796;SDS011;68145;52.514;13.460;2023-04-24T05:51:31;5.18;;;2.97;;
78796;SDS011;68145;52.514;13.460;2023-04-24T05:53:57;4.70;;;3.20;;
78796;SDS011;68145;52.514;13.460;2023-04-24T05:56:23;6.78;;;3.78;;
78796;SDS011;68145;52.514;13.460;2023-04-24T05:58:49;4.43;;;2.90;;
78796;SDS011;68145;52.514;13.460;2023-04-24T06:01:15;6.30;;;2.80;;
78796;SDS011;68145;52.514;13.460;2023-04-24T06:03:41;8.25;;;2.70;;
78796;SDS011;68145;52.514;13.460;2023-04-24T06:06:07;3.67;;;2.38;;
78796;SDS011;68145;52.514;13.460;2023-04-24T06:08:34;4.38;;;2.58;;
78796;SDS011;68145;52.514;13.460;2023-04-24T06:11:00;3.95;;;2.60;;
78796;SDS011;68145;52.514;13.460;2023-04-24T06:13:27;4.82;;;2.45;;
78796;SDS011;68145;52.514;13.460;2023-04-24T06:15:53;4.05;;;2.28;;
78796;SDS011;68145;52.514;13.460;2023-04-24T06:18:19;4.30;;;2.50;;
78796;SDS011;68145;52.514;13.460;2023-04-24T06:20:46;4.13;;;2.20;;
78796;SDS011;68145;52.514;13.460;2023-04-24T06:23:12;4.35;;;2.40;;
78796;SDS011;68145;52.514;13.460;2023-04-24T06:25:38;3.13;;;2.35;;
78796;SDS011;68145;52.514;13.460;2023-04-24T06:28:04;5.07;;;2.78;;
78796;SDS011;68145;52.514;13.460;2023-04-24T06:30:31;8.00;;;3.70;;
78796;SDS011;68145;52.514;13.460;2023-04-24T06:32:57;4.07;;;2.10;;
78796;SDS011;68145;52.514;13.460;2023-04-24T06:35:23;5.95;;;2.70;;
78796;SDS011;68145;52.514;13.460;2023-04-24T06:37:49;3.05;;;1.98;;
78796;SDS011;68145;52.514;13.460;2023-04-24T06:40:15;6.18;;;2.30;;
78796;SDS011;68145;52.514;13.460;2023-04-24T06:42:43;5.10;;;2.40;;
78796;SDS011;68145;52.514;13.460;2023-04-24T06:45:09;3.65;;;2.05;;
78796;SDS011;68145;52.514;13.460;2023-04-24T06:47:36;3.67;;;2.08;;
78796;SDS011;68145;52.514;13.460;2023-04-24T06:50:03;4.70;;;2.08;;
78796;SDS011;68145;52.514;13.460;2023-04-24T06:52:29;3.42;;;2.10;;
78796;SDS011;68145;52.514;13.460;2023-04-24T06:55:04;3.30;;;2.10;;
78796;SDS011;68145;52.514;13.460;2023-04-24T06:57:30;6.15;;;3.05;;
78796;SDS011;68145;52.514;13.460;2023-04-24T06:59:56;3.85;;;2.13;;
78796;SDS011;68145;52.514;13.460;2023-04-24T07:02:23;3.25;;;2.30;;
78796;SDS011;68145;52.514;13.460;2023-04-24T07:04:49;3.83;;;2.17;;
78796;SDS011;68145;52.514;13.460;2023-04-24T07:07:15;3.42;;;1.80;;
78796;SDS011;68145;52.514;13.460;2023-04-24T07:09:41;4.22;;;1.88;;
78796;SDS011;68145;52.514;13.460;2023-04-24T07:12:10;3.08;;;1.80;;
78796;SDS011;68145;52.514;13.460;2023-04-24T07:14:37;4.30;;;1.90;;
78796;SDS011;68145;52.514;13.460;2023-04-24T07:17:03;3.17;;;2.17;;
78796;SDS011;68145;52.514;13.460;2023-04-24T07:19:30;4.72;;;1.92;;
78796;SDS011;68145;52.514;13.460;2023-04-24T07:21:56;2.40;;;1.67;;
78796;SDS011;68145;52.514;13.460;2023-04-24T07:24:23;5.85;;;1.73;;
78796;SDS011;68145;52.514;13.460;2023-04-24T07:26:50;4.22;;;1.60;;
78796;SDS011;68145;52.514;13.460;2023-04-24T07:29:17;4.35;;;1.58;;
78796;SDS011;68145;52.514;13.460;2023-04-24T07:31:43;2.35;;;1.60;;
78796;SDS011;68145;52.514;13.460;2023-04-24T07:34:09;3.28;;;1.65;;
78796;SDS011;68145;52.514;13.460;2023-04-24T07:36:35;2.92;;;1.70;;
78796;SDS011;68145;52.514;13.460;2023-04-24T07:39:03;2.10;;;1.40;;
78796;SDS011;68145;52.514;13.460;2023-04-24T07:41:29;2.20;;;1.30;;
78796;SDS011;68145;52.514;13.460;2023-04-24T07:43:55;2.75;;;1.58;;
78796;SDS011;68145;52.514;13.460;2023-04-24T07:46:21;3.28;;;1.30;;
78796;SDS011;68145;52.514;13.460;2023-04-24T07:48:48;2.33;;;1.50;;
78796;SDS011;68145;52.514;13.460;2023-04-24T07:51:15;2.05;;;1.25;;
78796;SDS011;68145;52.514;13.460;2023-04-24T07:53:41;2.10;;;1.33;;
78796;SDS011;68145;52.514;13.460;2023-04-24T07:56:08;1.67;;;1.20;;
78796;SDS011;68145;52.514;13.460;2023-04-24T08:01:01;1.83;;;1.20;;
78796;SDS011;68145;52.514;13.460;2023-04-24T08:03:27;2.38;;;1.20;;
78796;SDS011;68145;52.514;13.460;2023-04-24T08:05:53;3.33;;;1.38;;
78796;SDS011;68145;52.514;13.460;2023-04-24T08:08:21;1.50;;;1.15;;
78796;SDS011;68145;52.514;13.460;2023-04-24T08:10:47;2.05;;;1.02;;
78796;SDS011;68145;52.514;13.460;2023-04-24T08:13:14;1.92;;;1.20;;
78796;SDS011;68145;52.514;13.460;2023-04-24T08:15:40;2.22;;;1.42;;
78796;SDS011;68145;52.514;13.460;2023-04-24T08:18:06;4.60;;;1.85;;
78796;SDS011;68145;52.514;13.460;2023-04-24T08:20:32;3.55;;;2.03;;
78796;SDS011;68145;52.514;13.460;2023-04-24T08:22:58;1.95;;;1.30;;
78796;SDS011;68145;52.514;13.460;2023-04-24T08:25:25;2.15;;;1.25;;
78796;SDS011;68145;52.514;13.460;2023-04-24T08:27:51;1.48;;;1.25;;
78796;SDS011;68145;52.514;13.460;2023-04-24T08:30:17;2.28;;;1.65;;
78796;SDS011;68145;52.514;13.460;2023-04-24T08:32:43;2.97;;;1.30;;
78796;SDS011;68145;52.514;13.460;2023-04-24T08:35:10;2.47;;;1.27;;
78796;SDS011;68145;52.514;13.460;2023-04-24T08:37:36;1.92;;;1.35;;
78796;SDS011;68145;52.514;13.460;2023-04-24T08:40:26;2.53;;;1.50;;
78796;SDS011;68145;52.514;13.460;2023-04-24T08:42:48;3.65;;;1.50;;
78796;SDS011;68145;52.514;13.460;2023-04-24T08:45:15;3.28;;;1.65;;
78796;SDS011;68145;52.514;13.460;2023-04-24T08:47:41;2.72;;;1.65;;
78796;SDS011;68145;52.514;13.460;2023-04-24T08:50:09;5.15;;;1.70;;
78796;SDS011;68145;52.514;13.460;2023-04-24T08:52:35;3.95;;;1.45;;
78796;SDS011;68145;52.514;13.460;2023-04-24T08:55:01;4.13;;;1.92;;
78796;SDS011;68145;52.514;13.460;2023-04-24T08:57:28;3.80;;;1.75;;
78796;SDS011;68145;52.514;13.460;2023-04-24T08:59:54;3.28;;;1.63;;
78796;SDS011;68145;52.514;13.460;2023-04-24T09:02:21;2.65;;;1.30;;
78796;SDS011;68145;52.514;13.460;2023-04-24T09:04:48;3.92;;;2.03;;
78796;SDS011;68145;52.514;13.460;2023-04-24T09:07:16;1.23;;;1.00;;
78796;SDS011;68145;52.514;13.460;2023-04-24T09:12:09;1.20;;;1.02;;
78796;SDS011;68145;52.514;13.460;2023-04-24T09:14:35;2.40;;;1.40;;
78796;SDS011;68145;52.514;13.460;2023-04-24T09:17:04;2.53;;;1.40;;
78796;SDS011;68145;52.514;13.460;2023-04-24T09:19:31;1.70;;;1.20;;
78796;SDS011;68145;52.514;13.460;2023-04-24T09:21:57;2.85;;;1.60;;
78796;SDS011;68145;52.514;13.460;2023-04-24T09:24:23;2.55;;;1.33;;
78796;SDS011;68145;52.514;13.460;2023-04-24T09:26:55;4.57;;;1.60;;
78796;SDS011;68145;52.514;13.460;2023-04-24T09:29:28;1.90;;;1.30;;
78796;SDS011;68145;52.514;13.460;2023-04-24T09:31:55;13.18;;;6.43;;
78796;SDS011;68145;52.514;13.460;2023-04-24T09:34:21;8.63;;;2.35;;
78796;SDS011;68145;52.514;13.460;2023-04-24T09:39:15;4.55;;;1.60;;
78796;SDS011;68145;52.514;13.460;2023-04-24T09:41:52;3.63;;;1.52;;
78796;SDS011;68145;52.514;13.460;2023-04-24T09:44:19;3.20;;;1.80;;
78796;SDS011;68145;52.514;13.460;2023-04-24T09:46:49;3.05;;;1.48;;
78796;SDS011;68145;52.514;13.460;2023-04-24T09:49:16;2.60;;;1.80;;
78796;SDS011;68145;52.514;13.460;2023-04-24T09:51:43;2.35;;;1.50;;
78796;SDS011;68145;52.514;13.460;2023-04-24T09:54:19;6.38;;;1.70;;
78796;SDS011;68145;52.514;13.460;2023-04-24T09:56:46;2.33;;;1.42;;
78796;SDS011;68145;52.514;13.460;2023-04-24T09:59:17;6.72;;;1.80;;
78796;SDS011;68145;52.514;13.460;2023-04-24T10:01:43;3.65;;;1.67;;
78796;SDS011;68145;52.514;13.460;2023-04-24T10:06:43;2.10;;;1.50;;
78796;SDS011;68145;52.514;13.460;2023-04-24T10:09:09;5.93;;;1.58;;
78796;SDS011;68145;52.514;13.460;2023-04-24T10:11:37;1.95;;;1.30;;
78796;SDS011;68145;52.514;13.460;2023-04-24T10:14:07;2.40;;;1.30;;
78796;SDS011;68145;52.514;13.460;2023-04-24T10:16:35;5.50;;;1.50;;
78796;SDS011;68145;52.514;13.460;2023-04-24T10:19:02;2.28;;;1.50;;
78796;SDS011;68145;52.514;13.460;2023-04-24T10:21:28;3.45;;;1.50;;
78796;SDS011;68145;52.514;13.460;2023-04-24T10:23:55;3.83;;;1.40;;
78796;SDS011;68145;52.514;13.460;2023-04-24T10:26:21;5.80;;;3.25;;
78796;SDS011;68145;52.514;13.460;2023-04-24T10:29:10;3.35;;;1.92;;
78796;SDS011;68145;52.514;13.460;2023-04-24T10:31:46;3.05;;;1.42;;
78796;SDS011;68145;52.514;13.460;2023-04-24T10:34:12;4.45;;;1.38;;
78796;SDS011;68145;52.514;13.460;2023-04-24T10:36:39;2.45;;;1.40;;
78796;SDS011;68145;52.514;13.460;2023-04-24T10:39:08;3.75;;;1.90;;
78796;SDS011;68145;52.514;13.460;2023-04-24T10:41:39;4.82;;;1.40;;
78796;SDS011;68145;52.514;13.460;2023-04-24T10:44:12;5.35;;;1.60;;
78796;SDS011;68145;52.514;13.460;2023-04-24T10:46:38;3.80;;;1.52;;
78796;SDS011;68145;52.514;13.460;2023-04-24T10:49:05;18.95;;;2.67;;
78796;SDS011;68145;52.514;13.460;2023-04-24T10:51:52;3.35;;;1.80;;
78796;SDS011;68145;52.514;13.460;2023-04-24T10:59:38;2.55;;;1.30;;
78796;SDS011;68145;52.514;13.460;2023-04-24T11:02:06;5.88;;;1.60;;
78796;SDS011;68145;52.514;13.460;2023-04-24T11:04:33;5.03;;;1.60;;
78796;SDS011;68145;52.514;13.460;2023-04-24T11:07:00;4.03;;;1.60;;
78796;SDS011;68145;52.514;13.460;2023-04-24T11:09:27;3.58;;;1.70;;
78796;SDS011;68145;52.514;13.460;2023-04-24T11:12:02;2.55;;;1.55;;
78796;SDS011;68145;52.514;13.460;2023-04-24T11:14:29;3.97;;;1.77;;
78796;SDS011;68145;52.514;13.460;2023-04-24T11:16:55;2.42;;;1.33;;
78796;SDS011;68145;52.514;13.460;2023-04-24T11:19:22;4.43;;;1.58;;
78796;SDS011;68145;52.514;13.460;2023-04-24T11:24:28;2.25;;;1.60;;
78796;SDS011;68145;52.514;13.460;2023-04-24T11:27:15;3.00;;;1.52;;
78796;SDS011;68145;52.514;13.460;2023-04-24T11:29:46;3.33;;;1.30;;
78796;SDS011;68145;52.514;13.460;2023-04-24T11:32:15;2.13;;;1.38;;
78796;SDS011;68145;52.514;13.460;2023-04-24T11:34:50;3.05;;;1.50;;
78796;SDS011;68145;52.514;13.460;2023-04-24T11:37:17;3.85;;;1.58;;
78796;SDS011;68145;52.514;13.460;2023-04-24T11:39:43;2.85;;;1.95;;
78796;SDS011;68145;52.514;13.460;2023-04-24T11:42:09;6.05;;;2.70;;
78796;SDS011;68145;52.514;13.460;2023-04-24T11:44:36;4.65;;;2.17;;
78796;SDS011;68145;52.514;13.460;2023-04-24T11:47:04;5.93;;;2.80;;
78796;SDS011;68145;52.514;13.460;2023-04-24T11:49:30;4.85;;;1.70;;
78796;SDS011;68145;52.514;13.460;2023-04-24T11:51:56;3.88;;;2.28;;
78796;SDS011;68145;52.514;13.460;2023-04-24T11:54:22;6.70;;;1.98;;
78796;SDS011;68145;52.514;13.460;2023-04-24T11:56:58;2.92;;;1.70;;
78796;SDS011;68145;52.514;13.460;2023-04-24T11:59:24;2.60;;;1.73;;
78796;SDS011;68145;52.514;13.460;2023-04-24T12:01:50;5.22;;;3.13;;
78796;SDS011;68145;52.514;13.460;2023-04-24T12:04:17;3.00;;;1.98;;
78796;SDS011;68145;52.514;13.460;2023-04-24T12:07:03;4.53;;;2.00;;
78796;SDS011;68145;52.514;13.460;2023-04-24T12:12:08;5.07;;;1.80;;
78796;SDS011;68145;52.514;13.460;2023-04-24T12:17:13;3.15;;;2.08;;
78796;SDS011;68145;52.514;13.460;2023-04-24T12:19:44;5.55;;;1.80;;
78796;SDS011;68145;52.514;13.460;2023-04-24T12:22:11;4.65;;;3.17;;
78796;SDS011;68145;52.514;13.460;2023-04-24T12:24:54;3.53;;;1.80;;
78796;SDS011;68145;52.514;13.460;2023-04-24T12:27:21;3.65;;;1.80;;
78796;SDS011;68145;52.514;13.460;2023-04-24T12:30:05;2.53;;;1.65;;
78796;SDS011;68145;52.514;13.460;2023-04-24T12:32:40;5.18;;;1.75;;
78796;SDS011;68145;52.514;13.460;2023-04-24T12:35:06;4.07;;;1.60;;
78796;SDS011;68145;52.514;13.460;2023-04-24T12:37:33;2.63;;;1.60;;
78796;SDS011;68145;52.514;13.460;2023-04-24T12:40:02;3.00;;;1.65;;
78796;SDS011;68145;52.514;13.460;2023-04-24T12:42:30;2.70;;;1.63;;
78796;SDS011;68145;52.514;13.460;2023-04-24T12:44:57;2.03;;;1.30;;
78796;SDS011;68145;52.514;13.460;2023-04-24T12:47:27;4.30;;;1.55;;
78796;SDS011;68145;52.514;13.460;2023-04-24T12:49:53;3.65;;;1.38;;
78796;SDS011;68145;52.514;13.460;2023-04-24T12:52:20;1.58;;;1.20;;
78796;SDS011;68145;52.514;13.460;2023-04-24T12:54:47;2.38;;;1.40;;
78796;SDS011;68145;52.514;13.460;2023-04-24T12:57:13;3.92;;;1.80;;
78796;SDS011;68145;52.514;13.460;2023-04-24T12:59:39;3.97;;;2.20;;
78796;SDS011;68145;52.514;13.460;2023-04-24T13:02:06;4.30;;;1.30;;
78796;SDS011;68145;52.514;13.460;2023-04-24T13:04:32;5.68;;;1.75;;
78796;SDS011;68145;52.514;13.460;2023-04-24T13:06:58;2.08;;;1.40;;
78796;SDS011;68145;52.514;13.460;2023-04-24T13:09:24;3.17;;;1.33;;
78796;SDS011;68145;52.514;13.460;2023-04-24T13:11:50;3.03;;;1.50;;
78796;SDS011;68145;52.514;13.460;2023-04-24T13:14:16;3.47;;;1.35;;
78796;SDS011;68145;52.514;13.460;2023-04-24T13:16:42;4.78;;;1.80;;
78796;SDS011;68145;52.514;13.460;2023-04-24T13:19:08;4.97;;;1.80;;
78796;SDS011;68145;52.514;13.460;2023-04-24T13:21:35;3.05;;;1.40;;
78796;SDS011;68145;52.514;13.460;2023-04-24T13:24:01;2.00;;;1.20;;
78796;SDS011;68145;52.514;13.460;2023-04-24T13:26:29;2.70;;;1.50;;
78796;SDS011;68145;52.514;13.460;2023-04-24T13:28:55;5.28;;;1.60;;
78796;SDS011;68145;52.514;13.460;2023-04-24T13:31:21;2.10;;;1.10;;
78796;SDS011;68145;52.514;13.460;2023-04-24T13:33:47;2.20;;;1.20;;
78796;SDS011;68145;52.514;13.460;2023-04-24T13:36:13;4.90;;;1.80;;
78796;SDS011;68145;52.514;13.460;2023-04-24T13:38:40;2.55;;;1.42;;
78796;SDS011;68145;52.514;13.460;2023-04-24T13:41:06;5.15;;;1.60;;
78796;SDS011;68145;52.514;13.460;2023-04-24T13:43:33;4.88;;;1.90;;
78796;SDS011;68145;52.514;13.460;2023-04-24T13:45:59;4.18;;;1.58;;
78796;SDS011;68145;52.514;13.460;2023-04-24T13:48:27;3.13;;;2.30;;
78796;SDS011;68145;52.514;13.460;2023-04-24T13:50:54;2.78;;;1.63;;
78796;SDS011;68145;52.514;13.460;2023-04-24T13:53:22;1.85;;;1.20;;
78796;SDS011;68145;52.514;13.460;2023-04-24T13:55:48;2.60;;;1.17;;
78796;SDS011;68145;52.514;13.460;2023-04-24T13:58:14;3.72;;;1.40;;
78796;SDS011;68145;52.514;13.460;2023-04-24T14:00:41;4.40;;;2.10;;
78796;SDS011;68145;52.514;13.460;2023-04-24T14:03:07;1.65;;;1.33;;
78796;SDS011;68145;52.514;13.460;2023-04-24T14:05:33;3.60;;;1.40;;
78796;SDS011;68145;52.514;13.460;2023-04-24T14:07:59;2.03;;;1.40;;
78796;SDS011;68145;52.514;13.460;2023-04-24T14:10:25;7.32;;;4.38;;
78796;SDS011;68145;52.514;13.460;2023-04-24T14:12:52;2.67;;;1.58;;
78796;SDS011;68145;52.514;13.460;2023-04-24T14:15:18;1.98;;;1.35;;
78796;SDS011;68145;52.514;13.460;2023-04-24T14:17:44;3.80;;;1.58;;
78796;SDS011;68145;52.514;13.460;2023-04-24T14:20:11;3.50;;;1.60;;
78796;SDS011;68145;52.514;13.460;2023-04-24T14:22:37;2.70;;;1.70;;
78796;SDS011;68145;52.514;13.460;2023-04-24T14:25:04;2.60;;;1.40;;
78796;SDS011;68145;52.514;13.460;2023-04-24T14:27:31;2.90;;;1.48;;
78796;SDS011;68145;52.514;13.460;2023-04-24T14:29:59;2.30;;;1.33;;
78796;SDS011;68145;52.514;13.460;2023-04-24T14:32:25;4.25;;;2.88;;
78796;SDS011;68145;52.514;13.460;2023-04-24T14:34:51;3.13;;;1.73;;
78796;SDS011;68145;52.514;13.460;2023-04-24T14:37:18;2.20;;;1.38;;
78796;SDS011;68145;52.514;13.460;2023-04-24T14:39:44;3.22;;;2.25;;
78796;SDS011;68145;52.514;13.460;2023-04-24T14:42:10;3.05;;;2.00;;
78796;SDS011;68145;52.514;13.460;2023-04-24T14:44:36;3.33;;;1.75;;
78796;SDS011;68145;52.514;13.460;2023-04-24T14:47:03;4.88;;;2.20;;
78796;SDS011;68145;52.514;13.460;2023-04-24T14:49:29;2.90;;;1.98;;
78796;SDS011;68145;52.514;13.460;2023-04-24T14:51:55;8.63;;;1.60;;
78796;SDS011;68145;52.514;13.460;2023-04-24T14:54:22;2.65;;;1.38;;
78796;SDS011;68145;52.514;13.460;2023-04-24T14:56:49;2.65;;;1.73;;